Detalii statie AGRIND TASNAD [0000197A]

Toti senzorii

Date Temperatura solului [C]Precipitatii [mm]Voltaj baterie [mV]Leaf Wetness [Min]HC Air temperature [C]HC Relative humidity [%]Punctul de roua [C]
medieminmaxsumaultimatimpmedieminmaxmediemediemin
2018-02-23 13:00:00 2.7 2.7 2.7 0 6962 3.76 3.76 3.77 100 3.7 3.7
2018-02-23 13:10:00 2.6 2.6 2.7 0 6922 3.86 3.8 3.92 100 3.8 3.8
2018-02-23 13:20:00 2.7 2.6 2.8 0 6952 3.9 3.85 3.96 100 3.8 3.8
2018-02-23 13:30:00 2.8 2.8 2.8 0 6972 3.96 3.95 3.98 100 3.9 3.9
2018-02-23 13:40:00 2.8 2.8 2.8 0 6962 3.99 3.99 3.99 100 3.9 3.9
2018-02-23 13:50:00 2.7 2.7 2.8 0 6962 3.98 3.97 3.99 100 3.9 3.9
2018-02-23 14:00:00 2.8 2.8 2.9 0 6962 3.87 3.81 3.93 100 3.8 3.8
2018-02-23 14:10:00 2.8 2.8 2.8 0 6914 3.85 3.84 3.86 100 3.8 3.8
2018-02-23 14:20:00 2.8 2.8 2.9 0 6932 3.82 3.82 3.82 100 3.8 3.8
2018-02-23 14:30:00 2.8 2.8 2.8 0 6932 3.79 3.72 3.86 100 3.7 3.7
2018-02-23 14:40:00 2.9 2.8 3 0 6952 3.79 3.78 3.81 100 3.7 3.7
2018-02-23 14:50:00 3 3 3 0 6952 3.65 3.62 3.69 100 3.6 3.6
2018-02-23 15:00:00 2.9 2.9 2.9 0 6942 3.76 3.73 3.8 100 3.7 3.7
2018-02-23 15:10:00 2.9 2.9 2.9 0 6914 3.72 3.62 3.83 100 3.7 3.6
2018-02-23 15:20:00 2.9 2.9 2.9 0 6942 3.51 3.5 3.53 100 3.5 3.5
2018-02-23 15:30:00 2.9 2.9 2.9 0 6942 3.54 3.53 3.56 100 3.5 3.5
2018-02-23 15:40:00 2.9 2.9 3 0 6942 3.55 3.51 3.59 100 3.5 3.5
2018-02-23 15:50:00 2.9 2.9 3 0 6932 3.4 3.38 3.42 100 3.3 3.3
2018-02-23 16:00:00 2.9 2.9 2.9 0 6932 3.42 3.39 3.46 100 3.3 3.3
2018-02-23 16:10:00 2.9 2.9 3 0 6884 3.2 3.1 3.31 100 3.2 3.1
2018-02-23 16:20:00 2.9 2.9 2.9 0 6904 3.06 3.05 3.07 100 3 3
2018-02-23 16:30:00 3 3 3.1 0 6894 2.93 2.87 3 100 2.9 2.8
2018-02-23 16:40:00 3 2.9 3.1 0 6904 2.69 2.62 2.77 100 2.6 2.6
2018-02-23 16:50:00 3 3 3 0 6894 2.4 2.32 2.48 100 2.3 2.3
2018-02-23 17:00:00 3 3 3 0 6894 2.15 2.11 2.2 100 2.1 2.1
2018-02-23 17:10:00 3 3 3 0 6844 2.01 1.94 2.08 100 1.9 1.9
2018-02-23 17:20:00 3 3 3.1 0 6864 1.75 1.74 1.76 100 1.7 1.7
2018-02-23 17:30:00 3.1 3.1 3.1 0 6864 1.57 1.56 1.58 100 1.5 1.5
2018-02-23 17:40:00 3 3 3.1 0 6864 1.49 1.46 1.53 100 1.4 1.4
2018-02-23 17:50:00 3 3 3.1 0 6864 1.37 1.32 1.43 100 1.3 1.3
2018-02-23 18:00:00 3.1 3.1 3.1 0 6864 1.27 1.23 1.32 100 1.2 1.2
2018-02-23 18:10:00 3 2.9 3.1 0 6834 1.12 1.09 1.16 100 1 1
2018-02-23 18:20:00 2.9 2.9 3 0 6844 0.97 0.94 1 100 0.9 0.9
2018-02-23 18:30:00 2.9 2.9 3 0 6844 0.86 0.81 0.92 100 0.8 0.8
2018-02-23 18:40:00 2.9 2.9 2.9 0 6854 0.72 0.69 0.75 100 0.6 0.6
2018-02-23 18:50:00 2.9 2.9 3 0 6854 0.68 0.66 0.7 100 0.6 0.6
2018-02-23 19:00:00 2.9 2.9 3 0 6854 0.61 0.59 0.64 100 0.5 0.5
2018-02-23 19:10:00 2.9 2.9 3 0 6826 0.46 0.46 0.46 100 0.4 0.4
2018-02-23 19:20:00 2.9 2.9 3 0 6834 0.39 0.36 0.43 100 0.3 0.3
2018-02-23 19:30:00 2.9 2.9 2.9 0 6834 0.25 0.22 0.28 100 0.2 0.2
2018-02-23 19:40:00 2.8 2.8 2.9 0 6844 0.13 0.09 0.18 100 0 0
2018-02-23 19:50:00 2.8 2.8 2.8 0 6844 0.04 0.02 0.07 100 0 0
2018-02-23 20:00:00 2.9 2.8 3 0 6844 -0.1 -0.18 -0.03 100 0 0
2018-02-23 20:10:00 2.8 2.8 2.8 0 6816 -0.23 -0.25 -0.21 100 -0.1 -0.1
2018-02-23 20:20:00 2.8 2.8 2.9 0 6834 -0.46 -0.49 -0.43 100 -0.3 -0.3
2018-02-23 20:30:00 2.8 2.8 2.9 0 6834 -0.41 -0.42 -0.41 100 -0.3 -0.3
2018-02-23 20:40:00 2.8 2.8 2.8 0 6834 -0.54 -0.56 -0.53 100 -0.4 -0.4
2018-02-23 20:50:00 2.7 2.6 2.9 0 6844 -0.56 -0.62 -0.5 100 -0.4 -0.5